Map

Track Data

SID SEASON NUMBER BASIN SUBBASIN NAME ISO_TIME NATURE LAT LON WMO_WIND WMO_PRES WMO_AGENCY TRACK_TYPE DIST2LAND LANDFALL IFLAG USA_AGENCY USA_ATCF_ID USA_LAT USA_LON USA_RECORD USA_STATUS USA_WIND USA_PRES USA_SSHS USA_R34_NE USA_R34_SE USA_R34_SW USA_R34_NW USA_R50_NE USA_R50_SE USA_R50_SW USA_R50_NW USA_R64_NE USA_R64_SE USA_R64_SW USA_R64_NW USA_POCI USA_ROCI USA_RMW USA_EYE TOKYO_LAT TOKYO_LON TOKYO_GRADE TOKYO_WIND TOKYO_PRES TOKYO_R50_DIR TOKYO_R50_LONG TOKYO_R50_SHORT TOKYO_R30_DIR TOKYO_R30_LONG TOKYO_R30_SHORT TOKYO_LAND CMA_LAT CMA_LON CMA_CAT CMA_WIND CMA_PRES HKO_LAT HKO_LON HKO_CAT HKO_WIND HKO_PRES NEWDELHI_LAT NEWDELHI_LON NEWDELHI_GRADE NEWDELHI_WIND NEWDELHI_PRES NEWDELHI_CI NEWDELHI_DP NEWDELHI_POCI REUNION_LAT REUNION_LON REUNION_TYPE REUNION_WIND REUNION_PRES REUNION_TNUM REUNION_CI REUNION_RMW REUNION_R34_NE REUNION_R34_SE REUNION_R34_SW REUNION_R34_NW REUNION_R50_NE REUNION_R50_SE REUNION_R50_SW REUNION_R50_NW REUNION_R64_NE REUNION_R64_SE REUNION_R64_SW REUNION_R64_NW BOM_LAT BOM_LON BOM_TYPE BOM_WIND BOM_PRES BOM_TNUM BOM_CI BOM_RMW BOM_R34_NE BOM_R34_SE BOM_R34_SW BOM_R34_NW BOM_R50_NE BOM_R50_SE BOM_R50_SW BOM_R50_NW BOM_R64_NE BOM_R64_SE BOM_R64_SW BOM_R64_NW BOM_ROCI BOM_POCI BOM_EYE BOM_POS_METHOD BOM_PRES_METHOD NADI_LAT NADI_LON NADI_CAT NADI_WIND NADI_PRES WELLINGTON_LAT WELLINGTON_LON WELLINGTON_WIND WELLINGTON_PRES DS824_LAT DS824_LON DS824_STAGE DS824_WIND DS824_PRES TD9636_LAT TD9636_LON TD9636_STAGE TD9636_WIND TD9636_PRES TD9635_LAT TD9635_LON TD9635_WIND TD9635_PRES TD9635_ROCI NEUMANN_LAT NEUMANN_LON NEUMANN_CLASS NEUMANN_WIND NEUMANN_PRES MLC_LAT MLC_LON MLC_CLASS MLC_WIND MLC_PRES USA_GUST BOM_GUST BOM_GUST_PER REUNION_GUST REUNION_GUST_PER USA_SEAHGT USA_SEARAD_NE USA_SEARAD_SE USA_SEARAD_SW USA_SEARAD_NW STORM_SPEED STORM_DIR
1903070S13057 1903 22 SI MM NOT_NAMED 1903-03-11 00:00:00 TS -12.6000 56.8000 main 738 735 _________O____ -1 -12.6000 56.8000 TC 1 209
1903070S13057 1903 22 SI MM NOT_NAMED 1903-03-11 03:00:00 TS -12.6600 56.7625 main 735 725 _________P____ -1 -12.6600 56.7625 TC 1 223
1903070S13057 1903 22 SI MM NOT_NAMED 1903-03-11 06:00:00 TS -12.7000 56.7000 main 725 714 _________O____ -1 -12.7000 56.7000 TC 2 253
1903070S13057 1903 22 SI MM NOT_NAMED 1903-03-11 09:00:00 TS -12.7075 56.6000 main 714 703 _________P____ -1 -12.7075 56.6000 TC 2 270
1903070S13057 1903 22 SI MM NOT_NAMED 1903-03-11 12:00:00 TS -12.7000 56.5000 main 703 693 _________O____ -1 -12.7000 56.5000 TC 2 273
1903070S13057 1903 22 SI MM NOT_NAMED 1903-03-11 15:00:00 TS -12.7000 56.4425 main 693 693 _________P____ -1 -12.7000 56.4425 TC 1 270
1903070S13057 1903 22 SI MM NOT_NAMED 1903-03-11 18:00:00 TS -12.7000 56.4000 main 693 693 _________O____ -1 -12.7000 56.4000 TC 1 275
1903070S13057 1903 22 SI MM NOT_NAMED 1903-03-11 21:00:00 TS -12.6925 56.3500 main 693 682 _________P____ -1 -12.6925 56.3500 TC 1 270
1903070S13057 1903 22 SI MM NOT_NAMED 1903-03-12 00:00:00 TS -12.7000 56.3000 main 682 682 _________O____ -1 -12.7000 56.3000 TC 1 243
1903070S13057 1903 22 SI MM NOT_NAMED 1903-03-12 03:00:00 TS -12.7425 56.2500 main 682 669 _________P____ -1 -12.7425 56.2500 TC 1 223
1903070S13057 1903 22 SI MM NOT_NAMED 1903-03-12 06:00:00 TS -12.8000 56.2000 main 669 669 _________O____ -1 -12.8000 56.2000 TC 1 221
1903070S13057 1903 22 SI MM NOT_NAMED 1903-03-12 09:00:00 TS -12.8500 56.1500 main 669 656 _________P____ -1 -12.8500 56.1500 TC 1 223
1903070S13057 1903 22 SI MM NOT_NAMED 1903-03-12 12:00:00 TS -12.9000 56.1000 main 656 652 _________O____ -1 -12.9000 56.1000 TC 1 221
1903070S13057 1903 22 SI MM NOT_NAMED 1903-03-12 15:00:00 TS -12.9575 56.0500 main 652 642 _________P____ -1 -12.9575 56.0500 TC 1 223
1903070S13057 1903 22 SI MM NOT_NAMED 1903-03-12 18:00:00 TS -13.0000 56.0000 main 642 642 _________O____ -1 -13.0000 56.0000 TC 1 243
1903070S13057 1903 22 SI MM NOT_NAMED 1903-03-12 21:00:00 TS -13.0075 55.9500 main 642 632 _________P____ -1 -13.0075 55.9500 TC 1 270
1903070S13057 1903 22 SI MM NOT_NAMED 1903-03-13 00:00:00 TS -13.0000 55.9000 main 632 632 _________O____ -1 -13.0000 55.9000 TC 1 280
1903070S13057 1903 22 SI MM NOT_NAMED 1903-03-13 03:00:00 TS -12.9925 55.8575 main 632 622 _________P____ -1 -12.9925 55.8575 TC 1 270
1903070S13057 1903 22 SI MM NOT_NAMED 1903-03-13 06:00:00 TS -13.0000 55.8000 main 622 612 _________O____ -1 -13.0000 55.8000 TC 2 249
1903070S13057 1903 22 SI MM NOT_NAMED 1903-03-13 09:00:00 TS -13.0500 55.7000 main 608 598 _________P____ -1 -13.0500 55.7000 TC 2 243
1903070S13057 1903 22 SI MM NOT_NAMED 1903-03-13 12:00:00 TS -13.1000 55.6000 main 598 588 _________O____ -1 -13.1000 55.6000 TC 2 253
1903070S13057 1903 22 SI MM NOT_NAMED 1903-03-13 15:00:00 TS -13.1000 55.5350 main 588 588 _________P____ -1 -13.1000 55.5350 TC 1 270
1903070S13057 1903 22 SI MM NOT_NAMED 1903-03-13 18:00:00 TS -13.1000 55.5000 main 588 588 _________O____ -1 -13.1000 55.5000 TC 1 0
1903070S13057 1903 22 SI MM NOT_NAMED 1903-03-13 21:00:00 TS -13.1425 55.5075 main 588 583 _________P____ -1 -13.1425 55.5075 TC 1 0
1903070S13057 1903 22 SI MM NOT_NAMED 1903-03-14 00:00:00 TS -13.2000 55.5000 main 583 569 _________O____ -1 -13.2000 55.5000 TC 1 216
1903070S13057 1903 22 SI MM NOT_NAMED 1903-03-14 03:00:00 TS -13.2575 55.4150 main 569 559 _________P____ -1 -13.2575 55.4150 TC 2 243
1903070S13057 1903 22 SI MM NOT_NAMED 1903-03-14 06:00:00 TS -13.3000 55.3000 main 559 549 _________O____ -1 -13.3000 55.3000 TC 2 259
1903070S13057 1903 22 SI MM NOT_NAMED 1903-03-14 09:00:00 TS -13.3000 55.1925 main 549 539 _________P____ -1 -13.3000 55.1925 TC 2 270
1903070S13057 1903 22 SI MM NOT_NAMED 1903-03-14 12:00:00 TS -13.3000 55.1000 main 539 529 _________O____ -1 -13.3000 55.1000 TC 2 254
1903070S13057 1903 22 SI MM NOT_NAMED 1903-03-14 15:00:00 TS -13.3425 55.0425 main 529 525 _________P____ -1 -13.3425 55.0425 TC 1 223
1903070S13057 1903 22 SI MM NOT_NAMED 1903-03-14 18:00:00 TS -13.4000 55.0000 main 525 525 _________O____ -1 -13.4000 55.0000 TC 1 209
1903070S13057 1903 22 SI MM NOT_NAMED 1903-03-14 21:00:00 TS -13.4199 55.0023 main 525 510 _________P____ -1 -13.4199 55.0023 TC 1 223
1903070S13057 1903 22 SI MM NOT_NAMED 1903-03-15 00:00:00 TS -13.5000 54.9000 main 510 472 _________O____ -1 -13.5000 54.9000 TC 5 236
1903070S13057 1903 22 SI MM NOT_NAMED 1903-03-15 03:00:00 TS -13.7201 54.5452 main 462 410 _________P____ -1 -13.7201 54.5452 TC 9 237
1903070S13057 1903 22 SI MM NOT_NAMED 1903-03-15 06:00:00 TS -14.0000 54.1000 main 410 372 _________O____ -1 -14.0000 54.1000 TC 10 236
1903070S13057 1903 22 SI MM NOT_NAMED 1903-03-15 09:00:00 TS -14.2574 53.7350 main 358 321 _________P____ -1 -14.2574 53.7350 TC 8 234
1903070S13057 1903 22 SI MM NOT_NAMED 1903-03-15 12:00:00 TS -14.5000 53.4000 main 321 284 _________O____ -1 -14.5000 53.4000 TC 8 234
1903070S13057 1903 22 SI MM NOT_NAMED 1903-03-15 15:00:00 TS -14.7074 53.0924 main 284 249 _________P____ -1 -14.7074 53.0924 TC 7 235
1903070S13057 1903 22 SI MM NOT_NAMED 1903-03-15 18:00:00 TS -14.9000 52.8000 main 249 215 _________O____ -1 -14.9000 52.8000 TC 7 236
1903070S13057 1903 22 SI MM NOT_NAMED 1903-03-15 21:00:00 TS -15.0925 52.4924 main 215 182 _________P____ -1 -15.0925 52.4924 TC 7 235
1903070S13057 1903 22 SI MM NOT_NAMED 1903-03-16 00:00:00 TS -15.3000 52.2000 main 182 160 _________O____ -1 -15.3000 52.2000 TC 7 230
1903070S13057 1903 22 SI MM NOT_NAMED 1903-03-16 03:00:00 TS -15.5349 51.9424 main 150 136 _________P____ -1 -15.5349 51.9424 TC 7 224
1903070S13057 1903 22 SI MM NOT_NAMED 1903-03-16 06:00:00 TS -15.8000 51.7000 main 136 125 _________O____ -1 -15.8000 51.7000 TC 7 220
1903070S13057 1903 22 SI MM NOT_NAMED 1903-03-16 09:00:00 TS -16.0925 51.4500 main 120 111 _________P____ -1 -16.0925 51.4500 TC 8 219
1903070S13057 1903 22 SI MM NOT_NAMED 1903-03-16 12:00:00 TS -16.4000 51.2000 main 115 108 _________O____ -1 -16.4000 51.2000 TC 8 218
1903070S13057 1903 22 SI MM NOT_NAMED 1903-03-16 15:00:00 TS -16.7000 50.9499 main 108 96 _________P____ -1 -16.7000 50.9499 TC 8 219
1903070S13057 1903 22 SI MM NOT_NAMED 1903-03-16 18:00:00 TS -17.0000 50.7000 main 98 86 _________O____ -1 -17.0000 50.7000 TC 8 219
1903070S13057 1903 22 SI MM NOT_NAMED 1903-03-16 21:00:00 TS -17.3000 50.4425 main 84 75 _________P____ -1 -17.3000 50.4425 TC 8 219
1903070S13057 1903 22 SI MM NOT_NAMED 1903-03-17 00:00:00 TS -17.6000 50.2000 main 75 54 _________O____ -1 -17.6000 50.2000 TC 7 215
1903070S13057 1903 22 SI MM NOT_NAMED 1903-03-17 03:00:00 TS -17.8924 49.9998 main 57 42 _________P____ -1 -17.8924 49.9998 TC 7 212
1903070S13057 1903 22 SI MM NOT_NAMED 1903-03-17 06:00:00 TS -18.2000 49.8000 main 42 30 _________O____ -1 -18.2000 49.8000 TC 8 213
1903070S13057 1903 22 SI MM NOT_NAMED 1903-03-17 09:00:00 TS -18.5500 49.5575 main 33 15 _________P____ -1 -18.5500 49.5575 TC 8 214
1903070S13057 1903 22 SI MM NOT_NAMED 1903-03-17 12:00:00 TS -18.9000 49.3000 main 21 10 _________O____ -1 -18.9000 49.3000 TC 8 217
1903070S13057 1903 22 SI MM NOT_NAMED 1903-03-17 15:00:00 TS -19.2000 49.0424 main 0 0 _________P____ -1 -19.2000 49.0424 TC 8 218
1903070S13057 1903 22 SI MM NOT_NAMED 1903-03-17 18:00:00 TS -19.5000 48.8000 main 0 0 _________O____ -1 -19.5000 48.8000 TC 8 212
1903070S13057 1903 22 SI MM NOT_NAMED 1903-03-17 21:00:00 TS -19.8650 48.5925 main 0 0 _________P____ -1 -19.8650 48.5925 TC 8 208
1903070S13057 1903 22 SI MM NOT_NAMED 1903-03-18 00:00:00 TS -20.2000 48.4000 main 0 0 _________O____ -1 -20.2000 48.4000 TC 7 214
1903070S13057 1903 22 SI MM NOT_NAMED 1903-03-18 03:00:00 TS -20.4150 48.1924 main 0 0 _________P____ -1 -20.4150 48.1924 TC 6 223
1903070S13057 1903 22 SI MM NOT_NAMED 1903-03-18 06:00:00 TS -20.6000 48.0000 main 0 0 _________O____ -1 -20.6000 48.0000 TC 6 217
1903070S13057 1903 22 SI MM NOT_NAMED 1903-03-18 09:00:00 TS -20.8500 47.8350 main 0 0 _________P____ -1 -20.8500 47.8350 TC 6 209
1903070S13057 1903 22 SI MM NOT_NAMED 1903-03-18 12:00:00 TS -21.1000 47.7000 main 0 0 _________O____ -1 -21.1000 47.7000 TC 5 207
1903070S13057 1903 22 SI MM NOT_NAMED 1903-03-18 15:00:00 TS -21.3000 47.5924 main 0 0 _________P____ -1 -21.3000 47.5924 TC 4 205
1903070S13057 1903 22 SI MM NOT_NAMED 1903-03-18 18:00:00 TS -21.5000 47.5000 main 0 0 _________O____ -1 -21.5000 47.5000 TC 4 203
1903070S13057 1903 22 SI MM NOT_NAMED 1903-03-18 21:00:00 TS -21.7125 47.4074 main 0 0 _________P____ -1 -21.7125 47.4074 TC 5 200
1903070S13057 1903 22 SI MM NOT_NAMED 1903-03-19 00:00:00 TS -22.0000 47.3000 main 0 0 _________O____ -1 -22.0000 47.3000 TC 8 199
1903070S13057 1903 22 SI MM NOT_NAMED 1903-03-19 03:00:00 TS -22.4200 47.1501 main 0 0 _________P____ -1 -22.4200 47.1501 TC 9 197
1903070S13057 1903 22 SI MM NOT_NAMED 1903-03-19 06:00:00 TS -22.9000 47.0000 main 0 0 _________O____ -1 -22.9000 47.0000 TC 10 196
1903070S13057 1903 22 SI MM NOT_NAMED 1903-03-19 09:00:00 TS -23.3500 46.8701 main 0 0 _________P____ -1 -23.3500 46.8701 TC 9 192
1903070S13057 1903 22 SI MM NOT_NAMED 1903-03-19 12:00:00 TS -23.8000 46.8000 main 0 0 _________O____ -1 -23.8000 46.8000 TC 9 183
1903070S13057 1903 22 SI MM NOT_NAMED 1903-03-19 15:00:00 TS -24.2500 46.8125 main 0 0 _________P____ -1 -24.2500 46.8125 TC 9 175
1903070S13057 1903 22 SI MM NOT_NAMED 1903-03-19 18:00:00 TS -24.7000 46.9000 main 0 0 _________O____ -1 -24.7000 46.9000 TC 10 167
1903070S13057 1903 22 SI MM NOT_NAMED 1903-03-19 21:00:00 TS -25.1725 47.0423 main 11 11 _________P____ -1 -25.1725 47.0423 TC 9 163
1903070S13057 1903 22 SI MM NOT_NAMED 1903-03-20 00:00:00 TS -25.6000 47.2000 main 59 59 _________O____ -1 -25.6000 47.2000 TC 8 163
1903070S13057 1903 22 SI MM NOT_NAMED 1903-03-20 03:00:00 TS -25.9225 47.3002 main 92 92 _________P____ -1 -25.9225 47.3002 TC 6 163
1903070S13057 1903 22 SI MM NOT_NAMED 1903-03-20 06:00:00 TS -26.2000 47.4000 main 126 126 _________O____ -1 -26.2000 47.4000 TC 6 160
1903070S13057 1903 22 SI MM NOT_NAMED 1903-03-20 09:00:00 TS -26.5000 47.5351 main 161 161 _________P____ -1 -26.5000 47.5351 TC 7 156
1903070S13057 1903 22 SI MM NOT_NAMED 1903-03-20 12:00:00 TS -26.8000 47.7000 main 200 200 _________O____ -1 -26.8000 47.7000 TC 7 153
1903070S13057 1903 22 SI MM NOT_NAMED 1903-03-20 15:00:00 TS -27.1000 47.8851 main 238 238 _________P____ -1 -27.1000 47.8851 TC 7 149
1903070S13057 1903 22 SI MM NOT_NAMED 1903-03-20 18:00:00 TS -27.4000 48.1000 main 277 277 _________O____ -1 -27.4000 48.1000 TC 7 146
1903070S13057 1903 22 SI MM NOT_NAMED 1903-03-20 21:00:00 TS -27.6925 48.3426 main 316 316 _________P____ -1 -27.6925 48.3426 TC 7 144
1903070S13057 1903 22 SI MM NOT_NAMED 1903-03-21 00:00:00 TS -28.0000 48.6000 main 360 360 _________O____ -1 -28.0000 48.6000 TC 8 146
1903070S13057 1903 22 SI MM NOT_NAMED 1903-03-21 03:00:00 TS -28.3499 48.8426 main 399 399 _________P____ -1 -28.3499 48.8426 TC 8 148
1903070S13057 1903 22 SI MM NOT_NAMED 1903-03-21 06:00:00 TS -28.7000 49.1000 main 452 452 _________O____ -1 -28.7000 49.1000 TC 8 144
1903070S13057 1903 22 SI MM NOT_NAMED 1903-03-21 09:00:00 TS -29.0075 49.3927 main 496 496 _________P____ -1 -29.0075 49.3927 TC 8 139
1903070S13057 1903 22 SI MM NOT_NAMED 1903-03-21 12:00:00 TS -29.3000 49.7000 main 539 539 _________O____ -1 -29.3000 49.7000 TC 8 139
1903070S13057 1903 22 SI MM NOT_NAMED 1903-03-21 15:00:00 TS -29.6074 49.9927 main 583 583 _________P____ -1 -29.6074 49.9927 TC 8 139
1903070S13057 1903 22 SI MM NOT_NAMED 1903-03-21 18:00:00 TS -29.9000 50.3000 main 626 626 _________O____ -1 -29.9000 50.3000 TC 8 134
1903070S13057 1903 22 SI MM NOT_NAMED 1903-03-21 21:00:00 TS -30.1499 50.6353 main 661 661 _________P____ -1 -30.1499 50.6353 TC 8 130
1903070S13057 1903 22 SI MM NOT_NAMED 1903-03-22 00:00:00 TS -30.4000 51.0000 main 710 710 _________O____ -1 -30.4000 51.0000 TC 9 130
1903070S13057 1903 22 SI MM NOT_NAMED 1903-03-22 03:00:00 TS -30.6924 51.3926 main 759 759 _________P____ -1 -30.6924 51.3926 TC 9 131
1903070S13057 1903 22 SI MM NOT_NAMED 1903-03-22 06:00:00 TS -31.0000 51.8000 main 809 809 _________O____ -1 -31.0000 51.8000 TC 9 131
1903070S13057 1903 22 SI MM NOT_NAMED 1903-03-22 09:00:00 TS -31.2998 52.1928 main 858 858 _________P____ -1 -31.2998 52.1928 TC 9 131
1903070S13057 1903 22 SI MM NOT_NAMED 1903-03-22 12:00:00 TS -31.6000 52.6000 main 908 908 _________O____ -1 -31.6000 52.6000 TC 9 130
1903070S13057 1903 22 SI MM NOT_NAMED 1903-03-22 15:00:00 TS -31.9074 53.0426 main 958 958 _________P____ -1 -31.9074 53.0426 TC 10 128
1903070S13057 1903 22 SI MM NOT_NAMED 1903-03-22 18:00:00 TS -32.2000 53.5000 main 1014 1014 _________O____ -1 -32.2000 53.5000 TC 9 125
1903070S13057 1903 22 SI MM NOT_NAMED 1903-03-22 21:00:00 TS -32.4422 53.9358 main 1055 1055 _________P____ -1 -32.4422 53.9358 TC 9 123
1903070S13057 1903 22 SI MM NOT_NAMED 1903-03-23 00:00:00 TS -32.7000 54.4000 main 1111 1111 _________O____ -1 -32.7000 54.4000 TC 10 125
1903070S13057 1903 22 SI MM NOT_NAMED 1903-03-23 03:00:00 TS -33.0350 54.9350 main 1167 1167 _________P____ -1 -33.0350 54.9350 TC 12 127
1903070S13057 1903 22 SI MM NOT_NAMED 1903-03-23 06:00:00 TS -33.4000 55.5000 main 1238 1238 _________O____ -1 -33.4000 55.5000 TC 12 128
1903070S13057 1903 22 SI MM NOT_NAMED 1903-03-23 09:00:00 TS -33.7573 56.0577 main 1309 1309 _________P____ -1 -33.7573 56.0577 TC 12 127
1903070S13057 1903 22 SI MM NOT_NAMED 1903-03-23 12:00:00 TS -34.1000 56.6000 main 1365 1365 _________O____ -1 -34.1000 56.6000 TC 11 127
1903070S13057 1903 22 SI MM NOT_NAMED 1903-03-23 15:00:00 TS -34.4147 57.1079 main 1421 1421 _________P____ -1 -34.4147 57.1079 TC 10 126
1903070S13057 1903 22 SI MM NOT_NAMED 1903-03-23 18:00:00 TS -34.7000 57.6000 main 1477 1477 _________O____ -1 -34.7000 57.6000 TC 10 124
1903070S13057 1903 22 SI MM NOT_NAMED 1903-03-23 21:00:00 TS -34.9580 58.0969 main 1533 1533 _________P____ -1 -34.9580 58.0969 TC 10 121
1903070S13057 1903 22 SI MM NOT_NAMED 1903-03-24 00:00:00 TS -35.2000 58.6000 main 1568 _________O____ -1 -35.2000 58.6000 TC 10 121

About IBTrACS Database

This database is a web-friendly format of International Best Track Archive for Climate Stewardship (IBTrACS), a global best track data archive curated by NOAA dating back to 1842.

Updated: 2021-12-03